sensor_id;sensor_type;location;lat;lon;timestamp;temperature;humidity
8105;DHT22;4095;48.942;9.104;2022-09-01T00:01:21;18.90;99.90
8105;DHT22;4095;48.942;9.104;2022-09-01T00:03:50;18.90;99.90
8105;DHT22;4095;48.942;9.104;2022-09-01T00:06:23;18.80;99.90
8105;DHT22;4095;48.942;9.104;2022-09-01T00:08:53;18.70;99.90
8105;DHT22;4095;48.942;9.104;2022-09-01T00:11:20;18.70;99.90
8105;DHT22;4095;48.942;9.104;2022-09-01T00:13:47;18.60;99.90
8105;DHT22;4095;48.942;9.104;2022-09-01T00:16:14;18.70;99.90
8105;DHT22;4095;48.942;9.104;2022-09-01T00:18:42;18.70;99.90
8105;DHT22;4095;48.942;9.104;2022-09-01T00:21:09;18.70;99.90
8105;DHT22;4095;48.942;9.104;2022-09-01T00:23:35;18.70;99.90
8105;DHT22;4095;48.942;9.104;2022-09-01T00:26:01;18.60;99.90
8105;DHT22;4095;48.942;9.104;2022-09-01T00:28:27;18.50;99.90
8105;DHT22;4095;48.942;9.104;2022-09-01T00:30:52;18.40;99.90
8105;DHT22;4095;48.942;9.104;2022-09-01T00:33:18;18.30;99.90
8105;DHT22;4095;48.942;9.104;2022-09-01T00:35:44;18.30;99.90
8105;DHT22;4095;48.942;9.104;2022-09-01T00:38:10;18.30;99.90
8105;DHT22;4095;48.942;9.104;2022-09-01T00:40:36;18.20;99.90
8105;DHT22;4095;48.942;9.104;2022-09-01T00:43:57;18.10;99.90
8105;DHT22;4095;48.942;9.104;2022-09-01T00:45:56;18.10;99.90
8105;DHT22;4095;48.942;9.104;2022-09-01T00:48:22;18.10;99.90
8105;DHT22;4095;48.942;9.104;2022-09-01T00:50:47;18.10;99.90
8105;DHT22;4095;48.942;9.104;2022-09-01T00:53:13;18.10;99.90
8105;DHT22;4095;48.942;9.104;2022-09-01T00:55:39;18.10;99.90
8105;DHT22;4095;48.942;9.104;2022-09-01T00:58:06;18.10;99.90
8105;DHT22;4095;48.942;9.104;2022-09-01T01:00:35;18.20;99.90
8105;DHT22;4095;48.942;9.104;2022-09-01T01:03:07;18.20;99.90
8105;DHT22;4095;48.942;9.104;2022-09-01T01:05:37;18.20;99.90
8105;DHT22;4095;48.942;9.104;2022-09-01T01:08:05;18.20;99.90
8105;DHT22;4095;48.942;9.104;2022-09-01T01:10:38;18.10;99.90
8105;DHT22;4095;48.942;9.104;2022-09-01T01:13:13;18.10;99.90
8105;DHT22;4095;48.942;9.104;2022-09-01T01:15:42;17.90;99.90
8105;DHT22;4095;48.942;9.104;2022-09-01T01:18:15;17.90;99.90
8105;DHT22;4095;48.942;9.104;2022-09-01T01:20:41;17.90;99.90
8105;DHT22;4095;48.942;9.104;2022-09-01T01:23:46;18.00;99.90
8105;DHT22;4095;48.942;9.104;2022-09-01T01:26:15;17.90;99.90
8105;DHT22;4095;48.942;9.104;2022-09-01T01:28:42;17.90;99.90
8105;DHT22;4095;48.942;9.104;2022-09-01T01:31:12;18.00;99.90
8105;DHT22;4095;48.942;9.104;2022-09-01T01:33:44;17.90;99.90
8105;DHT22;4095;48.942;9.104;2022-09-01T01:36:22;17.80;99.90
8105;DHT22;4095;48.942;9.104;2022-09-01T01:38:59;17.80;99.90
8105;DHT22;4095;48.942;9.104;2022-09-01T01:41:28;17.80;99.90
8105;DHT22;4095;48.942;9.104;2022-09-01T01:43:59;17.80;99.90
8105;DHT22;4095;48.942;9.104;2022-09-01T01:46:26;17.80;99.90
8105;DHT22;4095;48.942;9.104;2022-09-01T01:48:52;17.80;99.90
8105;DHT22;4095;48.942;9.104;2022-09-01T01:51:19;17.80;99.90
8105;DHT22;4095;48.942;9.104;2022-09-01T01:53:46;17.80;99.90
8105;DHT22;4095;48.942;9.104;2022-09-01T01:56:12;17.80;99.90
8105;DHT22;4095;48.942;9.104;2022-09-01T01:58:39;17.70;99.90
8105;DHT22;4095;48.942;9.104;2022-09-01T02:01:05;17.70;99.90
8105;DHT22;4095;48.942;9.104;2022-09-01T02:03:33;17.70;99.90
8105;DHT22;4095;48.942;9.104;2022-09-01T02:06:05;17.70;99.90
8105;DHT22;4095;48.942;9.104;2022-09-01T02:08:33;17.70;99.90
8105;DHT22;4095;48.942;9.104;2022-09-01T02:11:01;17.70;99.90
8105;DHT22;4095;48.942;9.104;2022-09-01T02:13:27;17.70;99.90
8105;DHT22;4095;48.942;9.104;2022-09-01T02:16:04;17.70;99.90
8105;DHT22;4095;48.942;9.104;2022-09-01T02:18:37;17.70;99.90
8105;DHT22;4095;48.942;9.104;2022-09-01T02:21:04;17.60;99.90
8105;DHT22;4095;48.942;9.104;2022-09-01T02:23:34;17.60;99.90
8105;DHT22;4095;48.942;9.104;2022-09-01T02:26:00;17.60;99.90
8105;DHT22;4095;48.942;9.104;2022-09-01T02:28:29;17.50;99.90
8105;DHT22;4095;48.942;9.104;2022-09-01T02:30:56;17.50;99.90
8105;DHT22;4095;48.942;9.104;2022-09-01T02:33:25;17.50;99.90
8105;DHT22;4095;48.942;9.104;2022-09-01T02:36:01;17.50;99.90
8105;DHT22;4095;48.942;9.104;2022-09-01T02:38:28;17.60;99.90
8105;DHT22;4095;48.942;9.104;2022-09-01T02:40:56;17.60;99.90
8105;DHT22;4095;48.942;9.104;2022-09-01T02:43:23;17.50;99.90
8105;DHT22;4095;48.942;9.104;2022-09-01T02:45:54;17.50;99.90
8105;DHT22;4095;48.942;9.104;2022-09-01T02:48:31;17.50;99.90
8105;DHT22;4095;48.942;9.104;2022-09-01T02:50:58;17.50;99.90
8105;DHT22;4095;48.942;9.104;2022-09-01T02:53:24;17.50;99.90
8105;DHT22;4095;48.942;9.104;2022-09-01T02:55:50;17.50;99.90
8105;DHT22;4095;48.942;9.104;2022-09-01T02:58:16;17.50;99.90
8105;DHT22;4095;48.942;9.104;2022-09-01T03:00:45;17.50;99.90
8105;DHT22;4095;48.942;9.104;2022-09-01T03:03:11;17.50;99.90
8105;DHT22;4095;48.942;9.104;2022-09-01T03:05:44;17.40;99.90
8105;DHT22;4095;48.942;9.104;2022-09-01T03:08:10;17.40;99.90
8105;DHT22;4095;48.942;9.104;2022-09-01T03:10:40;17.40;99.90
8105;DHT22;4095;48.942;9.104;2022-09-01T03:13:26;17.40;99.90
8105;DHT22;4095;48.942;9.104;2022-09-01T03:15:53;17.30;99.90
8105;DHT22;4095;48.942;9.104;2022-09-01T03:18:19;17.30;99.90
8105;DHT22;4095;48.942;9.104;2022-09-01T03:20:45;17.30;99.90
8105;DHT22;4095;48.942;9.104;2022-09-01T03:23:14;17.30;99.90
8105;DHT22;4095;48.942;9.104;2022-09-01T03:25:44;17.30;99.90
8105;DHT22;4095;48.942;9.104;2022-09-01T03:28:11;17.30;99.90
8105;DHT22;4095;48.942;9.104;2022-09-01T03:30:39;17.30;99.90
8105;DHT22;4095;48.942;9.104;2022-09-01T03:33:07;17.30;99.90
8105;DHT22;4095;48.942;9.104;2022-09-01T03:35:33;17.30;99.90
8105;DHT22;4095;48.942;9.104;2022-09-01T03:38:00;17.30;99.90
8105;DHT22;4095;48.942;9.104;2022-09-01T03:40:29;17.30;99.90
8105;DHT22;4095;48.942;9.104;2022-09-01T03:43:01;17.20;99.90
8105;DHT22;4095;48.942;9.104;2022-09-01T03:45:28;17.20;99.90
8105;DHT22;4095;48.942;9.104;2022-09-01T03:47:55;17.10;99.90
8105;DHT22;4095;48.942;9.104;2022-09-01T03:50:23;17.10;99.90
8105;DHT22;4095;48.942;9.104;2022-09-01T03:52:51;17.10;99.90
8105;DHT22;4095;48.942;9.104;2022-09-01T03:55:20;17.10;99.90
8105;DHT22;4095;48.942;9.104;2022-09-01T03:58:00;17.10;99.90
8105;DHT22;4095;48.942;9.104;2022-09-01T04:00:37;17.10;99.90
8105;DHT22;4095;48.942;9.104;2022-09-01T04:03:05;17.10;99.90
8105;DHT22;4095;48.942;9.104;2022-09-01T04:05:33;17.00;99.90
8105;DHT22;4095;48.942;9.104;2022-09-01T04:08:02;17.10;99.90
8105;DHT22;4095;48.942;9.104;2022-09-01T04:10:32;17.00;99.90
8105;DHT22;4095;48.942;9.104;2022-09-01T04:12:58;17.00;99.90
8105;DHT22;4095;48.942;9.104;2022-09-01T04:15:26;17.00;99.90
8105;DHT22;4095;48.942;9.104;2022-09-01T04:17:52;17.00;99.90
8105;DHT22;4095;48.942;9.104;2022-09-01T04:20:46;17.10;99.90
8105;DHT22;4095;48.942;9.104;2022-09-01T04:26:03;17.00;99.90
8105;DHT22;4095;48.942;9.104;2022-09-01T04:28:44;16.90;99.90
8105;DHT22;4095;48.942;9.104;2022-09-01T04:31:13;16.90;99.90
8105;DHT22;4095;48.942;9.104;2022-09-01T04:33:45;16.90;99.90
8105;DHT22;4095;48.942;9.104;2022-09-01T04:38:49;16.90;99.90
8105;DHT22;4095;48.942;9.104;2022-09-01T04:41:23;17.00;99.90
8105;DHT22;4095;48.942;9.104;2022-09-01T04:43:51;17.00;99.90
8105;DHT22;4095;48.942;9.104;2022-09-01T04:46:20;17.00;99.90
8105;DHT22;4095;48.942;9.104;2022-09-01T04:48:47;16.90;99.90
8105;DHT22;4095;48.942;9.104;2022-09-01T04:51:15;17.00;99.90
8105;DHT22;4095;48.942;9.104;2022-09-01T04:53:42;16.90;99.90
8105;DHT22;4095;48.942;9.104;2022-09-01T04:56:14;16.90;99.90
8105;DHT22;4095;48.942;9.104;2022-09-01T04:58:40;16.90;99.90
8105;DHT22;4095;48.942;9.104;2022-09-01T05:01:20;16.90;99.90
8105;DHT22;4095;48.942;9.104;2022-09-01T05:03:47;16.90;99.90
8105;DHT22;4095;48.942;9.104;2022-09-01T05:06:21;16.90;99.90
8105;DHT22;4095;48.942;9.104;2022-09-01T05:08:47;17.00;99.90
8105;DHT22;4095;48.942;9.104;2022-09-01T05:11:14;17.00;99.90
8105;DHT22;4095;48.942;9.104;2022-09-01T05:13:47;17.10;99.90
8105;DHT22;4095;48.942;9.104;2022-09-01T05:16:17;17.10;99.90
8105;DHT22;4095;48.942;9.104;2022-09-01T05:18:46;17.20;99.90
8105;DHT22;4095;48.942;9.104;2022-09-01T05:21:17;17.30;99.90
8105;DHT22;4095;48.942;9.104;2022-09-01T05:23:44;17.30;99.90
8105;DHT22;4095;48.942;9.104;2022-09-01T05:26:19;17.40;99.90
8105;DHT22;4095;48.942;9.104;2022-09-01T05:28:50;17.40;99.90
8105;DHT22;4095;48.942;9.104;2022-09-01T05:31:19;17.40;99.90
8105;DHT22;4095;48.942;9.104;2022-09-01T05:33:46;17.40;99.90
8105;DHT22;4095;48.942;9.104;2022-09-01T05:36:17;17.50;99.90
8105;DHT22;4095;48.942;9.104;2022-09-01T05:38:43;17.50;99.90
8105;DHT22;4095;48.942;9.104;2022-09-01T05:41:11;17.50;99.90
8105;DHT22;4095;48.942;9.104;2022-09-01T05:43:40;17.60;99.90
8105;DHT22;4095;48.942;9.104;2022-09-01T05:46:10;17.60;99.90
8105;DHT22;4095;48.942;9.104;2022-09-01T05:48:36;17.70;99.90
8105;DHT22;4095;48.942;9.104;2022-09-01T05:51:05;17.80;99.90
8105;DHT22;4095;48.942;9.104;2022-09-01T05:53:32;17.80;99.90
8105;DHT22;4095;48.942;9.104;2022-09-01T05:55:59;17.90;99.90
8105;DHT22;4095;48.942;9.104;2022-09-01T05:58:26;17.90;99.90
8105;DHT22;4095;48.942;9.104;2022-09-01T06:00:54;18.00;99.90
8105;DHT22;4095;48.942;9.104;2022-09-01T06:03:22;18.10;99.90
8105;DHT22;4095;48.942;9.104;2022-09-01T06:05:49;18.10;99.90
8105;DHT22;4095;48.942;9.104;2022-09-01T06:08:19;18.20;99.90
8105;DHT22;4095;48.942;9.104;2022-09-01T06:10:46;18.30;99.90
8105;DHT22;4095;48.942;9.104;2022-09-01T06:13:12;18.30;99.90
8105;DHT22;4095;48.942;9.104;2022-09-01T06:15:41;18.40;99.90
8105;DHT22;4095;48.942;9.104;2022-09-01T06:18:09;18.40;99.90
8105;DHT22;4095;48.942;9.104;2022-09-01T06:20:41;18.40;99.90
8105;DHT22;4095;48.942;9.104;2022-09-01T06:23:08;18.50;99.90
8105;DHT22;4095;48.942;9.104;2022-09-01T06:25:37;18.60;99.90
8105;DHT22;4095;48.942;9.104;2022-09-01T06:28:04;18.70;99.90
8105;DHT22;4095;48.942;9.104;2022-09-01T06:30:30;18.80;99.90
8105;DHT22;4095;48.942;9.104;2022-09-01T06:33:01;18.80;99.90
8105;DHT22;4095;48.942;9.104;2022-09-01T06:35:27;18.80;99.90
8105;DHT22;4095;48.942;9.104;2022-09-01T06:37:55;18.80;99.90
8105;DHT22;4095;48.942;9.104;2022-09-01T06:40:21;18.90;99.90
8105;DHT22;4095;48.942;9.104;2022-09-01T06:42:50;19.00;99.90
8105;DHT22;4095;48.942;9.104;2022-09-01T06:45:19;19.10;99.90
8105;DHT22;4095;48.942;9.104;2022-09-01T06:47:46;19.20;99.90
8105;DHT22;4095;48.942;9.104;2022-09-01T06:50:14;19.30;99.90
8105;DHT22;4095;48.942;9.104;2022-09-01T06:52:43;19.30;99.90
8105;DHT22;4095;48.942;9.104;2022-09-01T06:55:13;19.50;99.90
8105;DHT22;4095;48.942;9.104;2022-09-01T06:57:40;19.50;99.90
8105;DHT22;4095;48.942;9.104;2022-09-01T07:00:09;19.60;99.90
8105;DHT22;4095;48.942;9.104;2022-09-01T07:02:47;19.70;99.90
8105;DHT22;4095;48.942;9.104;2022-09-01T07:05:17;19.80;99.90
8105;DHT22;4095;48.942;9.104;2022-09-01T07:07:47;20.00;99.90
8105;DHT22;4095;48.942;9.104;2022-09-01T07:10:16;20.00;99.90
8105;DHT22;4095;48.942;9.104;2022-09-01T07:12:50;20.10;99.90
8105;DHT22;4095;48.942;9.104;2022-09-01T07:15:16;20.20;99.90
8105;DHT22;4095;48.942;9.104;2022-09-01T07:17:55;20.20;99.90
8105;DHT22;4095;48.942;9.104;2022-09-01T07:20:24;20.30;99.90
8105;DHT22;4095;48.942;9.104;2022-09-01T07:22:51;20.50;99.90
8105;DHT22;4095;48.942;9.104;2022-09-01T07:25:17;20.50;99.90
8105;DHT22;4095;48.942;9.104;2022-09-01T07:27:44;20.60;99.50
8105;DHT22;4095;48.942;9.104;2022-09-01T07:30:14;20.60;99.50
8105;DHT22;4095;48.942;9.104;2022-09-01T07:32:40;20.70;99.50
8105;DHT22;4095;48.942;9.104;2022-09-01T07:35:10;20.80;99.10
8105;DHT22;4095;48.942;9.104;2022-09-01T07:37:36;20.90;99.20
8105;DHT22;4095;48.942;9.104;2022-09-01T07:40:10;21.00;99.00
8105;DHT22;4095;48.942;9.104;2022-09-01T07:42:36;21.00;98.40
8105;DHT22;4095;48.942;9.104;2022-09-01T07:45:06;21.10;98.60
8105;DHT22;4095;48.942;9.104;2022-09-01T07:47:35;21.20;98.20
8105;DHT22;4095;48.942;9.104;2022-09-01T07:50:06;21.20;98.30
8105;DHT22;4095;48.942;9.104;2022-09-01T07:52:34;21.20;98.10
8105;DHT22;4095;48.942;9.104;2022-09-01T07:55:01;21.20;97.80
8105;DHT22;4095;48.942;9.104;2022-09-01T07:57:28;21.20;97.70
8105;DHT22;4095;48.942;9.104;2022-09-01T07:59:53;21.20;97.80
8105;DHT22;4095;48.942;9.104;2022-09-01T08:02:20;21.30;98.10
8105;DHT22;4095;48.942;9.104;2022-09-01T08:04:46;21.30;98.00
8105;DHT22;4095;48.942;9.104;2022-09-01T08:07:13;21.40;97.70
8105;DHT22;4095;48.942;9.104;2022-09-01T08:09:39;21.50;97.60
8105;DHT22;4095;48.942;9.104;2022-09-01T08:12:06;21.60;97.70
8105;DHT22;4095;48.942;9.104;2022-09-01T08:14:32;21.70;97.90
8105;DHT22;4095;48.942;9.104;2022-09-01T08:16:58;21.80;97.30
8105;DHT22;4095;48.942;9.104;2022-09-01T08:19:23;21.90;97.20
8105;DHT22;4095;48.942;9.104;2022-09-01T08:21:49;22.00;96.40
8105;DHT22;4095;48.942;9.104;2022-09-01T08:24:15;22.00;96.10
8105;DHT22;4095;48.942;9.104;2022-09-01T08:26:41;22.00;96.10
8105;DHT22;4095;48.942;9.104;2022-09-01T08:29:06;22.10;96.60
8105;DHT22;4095;48.942;9.104;2022-09-01T08:31:32;22.20;96.20
8105;DHT22;4095;48.942;9.104;2022-09-01T08:34:00;22.30;96.30
8105;DHT22;4095;48.942;9.104;2022-09-01T08:36:29;22.30;96.20
8105;DHT22;4095;48.942;9.104;2022-09-01T08:38:55;22.20;95.70
8105;DHT22;4095;48.942;9.104;2022-09-01T08:41:43;22.30;95.60
8105;DHT22;4095;48.942;9.104;2022-09-01T08:46:47;22.30;95.80
8105;DHT22;4095;48.942;9.104;2022-09-01T08:49:22;22.30;95.70
8105;DHT22;4095;48.942;9.104;2022-09-01T08:51:49;22.20;95.30
8105;DHT22;4095;48.942;9.104;2022-09-01T08:57:14;22.20;95.60
8105;DHT22;4095;48.942;9.104;2022-09-01T08:59:41;22.20;95.70
8105;DHT22;4095;48.942;9.104;2022-09-01T09:05:28;22.30;95.60
8105;DHT22;4095;48.942;9.104;2022-09-01T09:16:42;22.70;94.50
8105;DHT22;4095;48.942;9.104;2022-09-01T09:21:59;22.70;94.90
8105;DHT22;4095;48.942;9.104;2022-09-01T09:27:32;22.60;94.80
8105;DHT22;4095;48.942;9.104;2022-09-01T09:33:04;22.80;94.50
8105;DHT22;4095;48.942;9.104;2022-09-01T09:35:34;22.90;94.30
8105;DHT22;4095;48.942;9.104;2022-09-01T09:40:58;22.90;94.50
8105;DHT22;4095;48.942;9.104;2022-09-01T09:43:25;22.80;94.50
8105;DHT22;4095;48.942;9.104;2022-09-01T09:48:48;22.70;94.20
8105;DHT22;4095;48.942;9.104;2022-09-01T09:51:20;22.60;94.20
8105;DHT22;4095;48.942;9.104;2022-09-01T09:53:46;22.60;94.20
8105;DHT22;4095;48.942;9.104;2022-09-01T09:58:41;22.60;94.30
8105;DHT22;4095;48.942;9.104;2022-09-01T10:03:58;22.70;94.20
8105;DHT22;4095;48.942;9.104;2022-09-01T10:09:06;22.80;94.00
8105;DHT22;4095;48.942;9.104;2022-09-01T10:11:38;22.80;93.80
8105;DHT22;4095;48.942;9.104;2022-09-01T10:14:16;22.90;94.30
8105;DHT22;4095;48.942;9.104;2022-09-01T10:16:46;22.80;94.00
8105;DHT22;4095;48.942;9.104;2022-09-01T10:19:14;22.90;94.10
8105;DHT22;4095;48.942;9.104;2022-09-01T10:21:44;22.90;93.80
8105;DHT22;4095;48.942;9.104;2022-09-01T10:24:31;22.90;93.70
8105;DHT22;4095;48.942;9.104;2022-09-01T10:27:07;22.90;93.40
8105;DHT22;4095;48.942;9.104;2022-09-01T10:30:26;22.90;93.30
8105;DHT22;4095;48.942;9.104;2022-09-01T10:32:44;22.90;93.50
8105;DHT22;4095;48.942;9.104;2022-09-01T10:35:17;23.10;93.60
8105;DHT22;4095;48.942;9.104;2022-09-01T10:37:45;23.10;93.60
8105;DHT22;4095;48.942;9.104;2022-09-01T10:42:54;23.20;93.00
8105;DHT22;4095;48.942;9.104;2022-09-01T10:45:33;23.20;92.80
8105;DHT22;4095;48.942;9.104;2022-09-01T10:48:29;23.20;93.00
8105;DHT22;4095;48.942;9.104;2022-09-01T10:53:52;23.30;92.60
8105;DHT22;4095;48.942;9.104;2022-09-01T10:56:42;23.40;92.80
8105;DHT22;4095;48.942;9.104;2022-09-01T11:04:16;24.10;91.70
8105;DHT22;4095;48.942;9.104;2022-09-01T11:06:58;24.00;91.60
8105;DHT22;4095;48.942;9.104;2022-09-01T11:09:36;24.00;92.10
8105;DHT22;4095;48.942;9.104;2022-09-01T11:12:31;24.10;92.40
8105;DHT22;4095;48.942;9.104;2022-09-01T11:17:57;24.50;91.80
8105;DHT22;4095;48.942;9.104;2022-09-01T11:20:27;24.40;91.60
8105;DHT22;4095;48.942;9.104;2022-09-01T11:23:07;24.30;91.80
8105;DHT22;4095;48.942;9.104;2022-09-01T11:25:46;24.30;92.10
8105;DHT22;4095;48.942;9.104;2022-09-01T11:30:48;24.60;92.20
8105;DHT22;4095;48.942;9.104;2022-09-01T11:39:06;25.50;89.60
8105;DHT22;4095;48.942;9.104;2022-09-01T11:44:19;25.20;90.70
8105;DHT22;4095;48.942;9.104;2022-09-01T11:46:46;25.20;90.30
8105;DHT22;4095;48.942;9.104;2022-09-01T11:49:31;25.70;90.10
8105;DHT22;4095;48.942;9.104;2022-09-01T11:51:58;26.30;88.70
8105;DHT22;4095;48.942;9.104;2022-09-01T11:54:25;26.80;87.80
8105;DHT22;4095;48.942;9.104;2022-09-01T11:56:51;27.30;86.10
8105;DHT22;4095;48.942;9.104;2022-09-01T11:59:34;27.60;85.00
8105;DHT22;4095;48.942;9.104;2022-09-01T12:02:01;27.30;84.10
8105;DHT22;4095;48.942;9.104;2022-09-01T12:04:33;26.80;85.50
8105;DHT22;4095;48.942;9.104;2022-09-01T12:07:08;26.50;85.80
8105;DHT22;4095;48.942;9.104;2022-09-01T12:09:43;26.20;86.50
8105;DHT22;4095;48.942;9.104;2022-09-01T12:12:31;26.40;86.40
8105;DHT22;4095;48.942;9.104;2022-09-01T12:15:21;26.50;86.50
8105;DHT22;4095;48.942;9.104;2022-09-01T12:17:47;26.70;85.20
8105;DHT22;4095;48.942;9.104;2022-09-01T12:20:28;26.70;85.40
8105;DHT22;4095;48.942;9.104;2022-09-01T12:22:56;26.50;85.00
8105;DHT22;4095;48.942;9.104;2022-09-01T12:25:28;26.10;85.80
8105;DHT22;4095;48.942;9.104;2022-09-01T12:27:54;26.00;88.10
8105;DHT22;4095;48.942;9.104;2022-09-01T12:30:21;25.80;87.30
8105;DHT22;4095;48.942;9.104;2022-09-01T12:32:48;25.70;86.80
8105;DHT22;4095;48.942;9.104;2022-09-01T12:35:24;25.60;87.60
8105;DHT22;4095;48.942;9.104;2022-09-01T12:37:49;25.90;86.20
8105;DHT22;4095;48.942;9.104;2022-09-01T12:40:39;25.90;85.70
8105;DHT22;4095;48.942;9.104;2022-09-01T12:43:05;26.00;86.40
8105;DHT22;4095;48.942;9.104;2022-09-01T12:45:46;26.00;86.00
8105;DHT22;4095;48.942;9.104;2022-09-01T12:50:59;25.80;86.80
8105;DHT22;4095;48.942;9.104;2022-09-01T12:53:28;25.60;87.40
8105;DHT22;4095;48.942;9.104;2022-09-01T12:56:03;25.40;87.40
8105;DHT22;4095;48.942;9.104;2022-09-01T12:58:29;25.30;88.20
8105;DHT22;4095;48.942;9.104;2022-09-01T13:01:02;25.20;87.70
8105;DHT22;4095;48.942;9.104;2022-09-01T13:03:29;25.10;86.60
8105;DHT22;4095;48.942;9.104;2022-09-01T13:05:57;25.20;88.20
8105;DHT22;4095;48.942;9.104;2022-09-01T13:08:32;25.40;87.40
8105;DHT22;4095;48.942;9.104;2022-09-01T13:11:03;25.60;86.20
8105;DHT22;4095;48.942;9.104;2022-09-01T13:13:30;25.60;85.80
8105;DHT22;4095;48.942;9.104;2022-09-01T13:15:57;25.70;84.50
8105;DHT22;4095;48.942;9.104;2022-09-01T13:18:27;25.80;83.50
8105;DHT22;4095;48.942;9.104;2022-09-01T13:20:53;25.80;83.60
8105;DHT22;4095;48.942;9.104;2022-09-01T13:23:20;25.60;83.50
8105;DHT22;4095;48.942;9.104;2022-09-01T13:25:47;25.60;84.60
8105;DHT22;4095;48.942;9.104;2022-09-01T13:28:14;25.60;85.20
8105;DHT22;4095;48.942;9.104;2022-09-01T13:30:41;25.50;85.70
8105;DHT22;4095;48.942;9.104;2022-09-01T13:33:07;25.60;84.90
8105;DHT22;4095;48.942;9.104;2022-09-01T13:35:36;25.50;84.80
8105;DHT22;4095;48.942;9.104;2022-09-01T13:38:02;25.60;85.30
8105;DHT22;4095;48.942;9.104;2022-09-01T13:40:28;25.50;84.80
8105;DHT22;4095;48.942;9.104;2022-09-01T13:42:53;25.40;85.30
8105;DHT22;4095;48.942;9.104;2022-09-01T13:45:21;25.30;84.70
8105;DHT22;4095;48.942;9.104;2022-09-01T13:47:50;25.30;85.30
8105;DHT22;4095;48.942;9.104;2022-09-01T13:50:18;25.30;84.90
8105;DHT22;4095;48.942;9.104;2022-09-01T13:52:50;25.20;84.70
8105;DHT22;4095;48.942;9.104;2022-09-01T13:55:28;25.20;83.60
8105;DHT22;4095;48.942;9.104;2022-09-01T13:57:54;25.10;84.00
8105;DHT22;4095;48.942;9.104;2022-09-01T14:00:27;25.10;84.50
8105;DHT22;4095;48.942;9.104;2022-09-01T14:02:56;25.10;84.60
8105;DHT22;4095;48.942;9.104;2022-09-01T14:05:27;25.30;85.20
8105;DHT22;4095;48.942;9.104;2022-09-01T14:07:53;25.30;85.00
8105;DHT22;4095;48.942;9.104;2022-09-01T14:10:20;25.30;84.30
8105;DHT22;4095;48.942;9.104;2022-09-01T14:12:46;25.40;84.80
8105;DHT22;4095;48.942;9.104;2022-09-01T14:15:14;25.40;83.20
8105;DHT22;4095;48.942;9.104;2022-09-01T14:17:40;25.40;82.60
8105;DHT22;4095;48.942;9.104;2022-09-01T14:20:10;25.40;81.20
8105;DHT22;4095;48.942;9.104;2022-09-01T14:22:37;25.40;81.80
8105;DHT22;4095;48.942;9.104;2022-09-01T14:25:05;25.30;82.10
8105;DHT22;4095;48.942;9.104;2022-09-01T14:27:31;25.30;83.20
8105;DHT22;4095;48.942;9.104;2022-09-01T14:29:56;25.30;82.50
8105;DHT22;4095;48.942;9.104;2022-09-01T14:32:22;25.30;83.20
8105;DHT22;4095;48.942;9.104;2022-09-01T14:34:52;25.30;82.70
8105;DHT22;4095;48.942;9.104;2022-09-01T14:37:18;25.30;82.90
8105;DHT22;4095;48.942;9.104;2022-09-01T14:39:49;25.30;83.30
8105;DHT22;4095;48.942;9.104;2022-09-01T14:42:14;25.30;83.90
8105;DHT22;4095;48.942;9.104;2022-09-01T14:44:40;25.40;83.60
8105;DHT22;4095;48.942;9.104;2022-09-01T14:47:07;25.30;82.30
8105;DHT22;4095;48.942;9.104;2022-09-01T14:49:34;25.40;83.10
8105;DHT22;4095;48.942;9.104;2022-09-01T14:52:03;25.40;82.70
8105;DHT22;4095;48.942;9.104;2022-09-01T14:54:32;25.40;81.20
8105;DHT22;4095;48.942;9.104;2022-09-01T14:56:58;25.40;82.20
8105;DHT22;4095;48.942;9.104;2022-09-01T14:59:24;25.50;82.10
8105;DHT22;4095;48.942;9.104;2022-09-01T15:01:49;25.40;81.80
8105;DHT22;4095;48.942;9.104;2022-09-01T15:04:15;25.40;83.50
8105;DHT22;4095;48.942;9.104;2022-09-01T15:06:41;25.40;83.40
8105;DHT22;4095;48.942;9.104;2022-09-01T15:09:06;25.40;83.00
8105;DHT22;4095;48.942;9.104;2022-09-01T15:11:32;25.40;82.60
8105;DHT22;4095;48.942;9.104;2022-09-01T15:13:58;25.40;82.90
8105;DHT22;4095;48.942;9.104;2022-09-01T15:16:25;25.40;83.40
8105;DHT22;4095;48.942;9.104;2022-09-01T15:18:53;25.30;83.10
8105;DHT22;4095;48.942;9.104;2022-09-01T15:21:28;25.30;83.90
8105;DHT22;4095;48.942;9.104;2022-09-01T15:23:59;25.30;83.50
8105;DHT22;4095;48.942;9.104;2022-09-01T15:26:25;25.30;82.90
8105;DHT22;4095;48.942;9.104;2022-09-01T15:28:51;25.30;83.20
8105;DHT22;4095;48.942;9.104;2022-09-01T15:31:19;25.30;83.20
8105;DHT22;4095;48.942;9.104;2022-09-01T15:33:45;25.30;84.30
8105;DHT22;4095;48.942;9.104;2022-09-01T15:36:17;25.30;82.60
8105;DHT22;4095;48.942;9.104;2022-09-01T15:38:44;25.30;81.40
8105;DHT22;4095;48.942;9.104;2022-09-01T15:41:18;25.20;81.50
8105;DHT22;4095;48.942;9.104;2022-09-01T15:43:44;25.20;81.90
8105;DHT22;4095;48.942;9.104;2022-09-01T15:46:10;25.20;81.60
8105;DHT22;4095;48.942;9.104;2022-09-01T15:48:37;25.20;81.60
8105;DHT22;4095;48.942;9.104;2022-09-01T15:53:47;25.20;82.40
8105;DHT22;4095;48.942;9.104;2022-09-01T15:56:13;25.20;83.00
8105;DHT22;4095;48.942;9.104;2022-09-01T15:58:39;25.20;82.80
8105;DHT22;4095;48.942;9.104;2022-09-01T16:01:04;25.10;83.60
8105;DHT22;4095;48.942;9.104;2022-09-01T16:03:30;25.10;83.30
8105;DHT22;4095;48.942;9.104;2022-09-01T16:05:58;25.10;83.20
8105;DHT22;4095;48.942;9.104;2022-09-01T16:08:24;25.10;82.60
8105;DHT22;4095;48.942;9.104;2022-09-01T16:10:50;25.10;82.00
8105;DHT22;4095;48.942;9.104;2022-09-01T16:13:16;25.00;81.80
8105;DHT22;4095;48.942;9.104;2022-09-01T16:15:47;25.00;82.30
8105;DHT22;4095;48.942;9.104;2022-09-01T16:21:14;25.00;82.60
8105;DHT22;4095;48.942;9.104;2022-09-01T16:23:44;25.00;83.40
8105;DHT22;4095;48.942;9.104;2022-09-01T16:26:10;25.00;83.30
8105;DHT22;4095;48.942;9.104;2022-09-01T16:28:37;25.00;83.50
8105;DHT22;4095;48.942;9.104;2022-09-01T16:31:15;25.00;84.10
8105;DHT22;4095;48.942;9.104;2022-09-01T16:33:46;25.00;84.50
8105;DHT22;4095;48.942;9.104;2022-09-01T16:36:23;24.90;84.00
8105;DHT22;4095;48.942;9.104;2022-09-01T16:38:57;24.80;84.10
8105;DHT22;4095;48.942;9.104;2022-09-01T16:47:43;24.80;84.30
8105;DHT22;4095;48.942;9.104;2022-09-01T16:58:16;24.70;84.80
8105;DHT22;4095;48.942;9.104;2022-09-01T17:06:30;24.60;85.20
8105;DHT22;4095;48.942;9.104;2022-09-01T17:09:30;24.60;85.10
8105;DHT22;4095;48.942;9.104;2022-09-01T17:15:15;24.50;84.00
8105;DHT22;4095;48.942;9.104;2022-09-01T17:17:54;24.50;84.70
8105;DHT22;4095;48.942;9.104;2022-09-01T17:20:25;24.50;84.90
8105;DHT22;4095;48.942;9.104;2022-09-01T17:22:55;24.50;85.00
8105;DHT22;4095;48.942;9.104;2022-09-01T17:25:30;24.40;85.50
8105;DHT22;4095;48.942;9.104;2022-09-01T17:28:14;24.40;84.30
8105;DHT22;4095;48.942;9.104;2022-09-01T17:31:08;24.40;84.50
8105;DHT22;4095;48.942;9.104;2022-09-01T17:42:35;24.10;84.60
8105;DHT22;4095;48.942;9.104;2022-09-01T17:48:05;24.10;85.40
8105;DHT22;4095;48.942;9.104;2022-09-01T17:53:20;24.00;85.90
8105;DHT22;4095;48.942;9.104;2022-09-01T17:58:59;23.90;86.40
8105;DHT22;4095;48.942;9.104;2022-09-01T18:09:53;23.70;87.40
8105;DHT22;4095;48.942;9.104;2022-09-01T18:12:28;23.70;87.00
8105;DHT22;4095;48.942;9.104;2022-09-01T18:15:13;23.60;87.40
8105;DHT22;4095;48.942;9.104;2022-09-01T18:17:44;23.60;87.50
8105;DHT22;4095;48.942;9.104;2022-09-01T18:22:57;23.60;87.60
8105;DHT22;4095;48.942;9.104;2022-09-01T18:25:34;23.50;86.60
8105;DHT22;4095;48.942;9.104;2022-09-01T18:28:01;23.40;86.50
8105;DHT22;4095;48.942;9.104;2022-09-01T18:30:33;23.40;86.20